createdAt,value
2019-04-16T00:02:38.596Z,17.73
2019-04-16T00:05:16.017Z,16.67
2019-04-16T00:07:58.041Z,13.77
2019-04-16T00:10:46.658Z,16.43
2019-04-16T00:13:29.903Z,14.25
2019-04-16T00:16:01.406Z,15.13
2019-04-16T00:18:32.214Z,15.30
2019-04-16T00:21:38.499Z,15.87
2019-04-16T00:24:37.366Z,14.60
2019-04-16T00:27:08.478Z,13.80
2019-04-16T00:29:39.945Z,16.87
2019-04-16T00:32:20.389Z,15.53
2019-04-16T00:34:51.355Z,14.03
2019-04-16T00:37:22.249Z,18.50
2019-04-16T00:39:56.045Z,15.07
2019-04-16T00:42:26.738Z,14.37
2019-04-16T00:44:57.883Z,17.53
2019-04-16T00:47:28.825Z,15.57
2019-04-16T00:50:00.095Z,15.30
2019-04-16T00:52:31.153Z,14.20
2019-04-16T00:55:02.173Z,15.17
2019-04-16T00:57:33.117Z,15.38
2019-04-16T01:00:04.253Z,15.63
2019-04-16T01:02:35.298Z,15.68
2019-04-16T01:05:06.502Z,14.80
2019-04-16T01:07:37.411Z,14.27
2019-04-16T01:10:08.380Z,13.97
2019-04-16T01:12:39.285Z,16.07
2019-04-16T01:15:10.187Z,14.30
2019-04-16T01:17:41.118Z,15.93
2019-04-16T01:20:13.115Z,19.53
2019-04-16T01:22:46.850Z,17.70
2019-04-16T01:25:17.020Z,17.23
2019-04-16T01:27:52.169Z,15.23
2019-04-16T01:30:41.947Z,14.50
2019-04-16T01:33:22.208Z,15.53
2019-04-16T01:35:59.757Z,14.20
2019-04-16T01:38:36.364Z,18.33
2019-04-16T01:41:10.072Z,15.27
2019-04-16T01:43:41.215Z,15.35
2019-04-16T01:46:12.113Z,15.32
2019-04-16T01:48:43.176Z,15.20
2019-04-16T01:51:15.398Z,16.80
2019-04-16T01:53:49.241Z,15.80
2019-04-16T01:56:19.326Z,15.95
2019-04-16T01:58:50.277Z,16.57
2019-04-16T02:01:22.367Z,15.27
2019-04-16T02:03:53.266Z,17.93
2019-04-16T02:06:25.939Z,16.15
2019-04-16T02:09:01.765Z,14.77
2019-04-16T02:11:29.456Z,17.43
2019-04-16T02:14:00.732Z,18.77
2019-04-16T02:16:31.790Z,14.63
2019-04-16T02:19:02.873Z,14.93
2019-04-16T02:21:33.849Z,14.60
2019-04-16T02:24:04.801Z,14.67
2019-04-16T02:26:35.817Z,15.83
2019-04-16T02:29:06.856Z,19.27
2019-04-16T02:31:37.725Z,16.50
2019-04-16T02:34:11.753Z,15.77
2019-04-16T02:36:42.839Z,16.27
2019-04-16T02:39:14.112Z,14.67
2019-04-16T02:41:45.092Z,13.55
2019-04-16T02:44:17.024Z,15.33
2019-04-16T02:46:48.055Z,15.80
2019-04-16T02:49:23.215Z,14.13
2019-04-16T02:52:14.855Z,13.37
2019-04-16T02:55:07.672Z,16.37
2019-04-16T02:57:59.502Z,16.13
2019-04-16T03:00:58.163Z,17.40
2019-04-16T03:03:34.746Z,13.23
2019-04-16T03:06:06.213Z,19.75
2019-04-16T03:08:37.162Z,17.33
2019-04-16T03:11:08.251Z,15.80
2019-04-16T03:13:39.184Z,13.47
2019-04-16T03:16:20.848Z,15.27
2019-04-16T03:18:59.126Z,13.67
2019-04-16T03:21:30.145Z,13.60
2019-04-16T03:24:01.070Z,15.07
2019-04-16T03:26:31.965Z,14.53
2019-04-16T03:29:03.295Z,13.60
2019-04-16T03:31:34.302Z,14.93
2019-04-16T03:34:06.530Z,17.06
2019-04-16T03:36:37.669Z,15.33
2019-04-16T03:39:12.279Z,14.70
2019-04-16T03:41:41.144Z,13.70
2019-04-16T03:44:12.016Z,17.65
2019-04-16T03:46:46.313Z,14.70
2019-04-16T03:49:15.309Z,13.55
2019-04-16T03:51:46.472Z,14.83
2019-04-16T03:54:18.866Z,13.75
2019-04-16T03:56:50.968Z,16.07
2019-04-16T03:59:22.056Z,15.60
2019-04-16T04:01:53.051Z,13.73
2019-04-16T04:04:28.967Z,13.35
2019-04-16T04:06:56.537Z,15.73
2019-04-16T04:09:27.332Z,13.57
2019-04-16T04:11:58.609Z,15.38
2019-04-16T04:14:29.558Z,13.03
2019-04-16T04:17:05.355Z,13.47
2019-04-16T04:19:33.184Z,15.40
2019-04-16T04:22:04.184Z,13.53
2019-04-16T04:24:35.096Z,15.10
2019-04-16T04:27:06.412Z,15.77
2019-04-16T04:29:37.725Z,15.40
2019-04-16T04:32:08.769Z,16.03
2019-04-16T04:34:39.577Z,13.10
2019-04-16T04:37:10.412Z,15.93
2019-04-16T04:39:44.126Z,14.70
2019-04-16T04:42:14.176Z,15.60
2019-04-16T04:44:46.945Z,13.37
2019-04-16T04:47:19.290Z,16.70
2019-04-16T04:49:50.479Z,15.80
2019-04-16T04:52:21.512Z,15.70
2019-04-16T04:54:54.136Z,14.77
2019-04-16T04:57:25.495Z,15.73
2019-04-16T04:59:56.411Z,13.93
2019-04-16T05:02:27.401Z,14.37
2019-04-16T05:05:04.287Z,14.43
2019-04-16T05:07:35.213Z,15.10
2019-04-16T05:10:07.447Z,13.48
2019-04-16T05:12:38.920Z,13.47
2019-04-16T05:15:09.635Z,13.90
2019-04-16T05:17:40.297Z,13.30
2019-04-16T05:20:14.852Z,14.60
2019-04-16T05:22:44.287Z,14.13
2019-04-16T05:25:15.297Z,11.80
2019-04-16T05:27:46.323Z,12.45
2019-04-16T05:30:21.072Z,13.83
2019-04-16T05:32:51.560Z,13.17
2019-04-16T05:35:22.642Z,12.18
2019-04-16T05:37:53.729Z,14.17
2019-04-16T05:40:28.232Z,13.73
2019-04-16T05:42:58.998Z,13.00
2019-04-16T05:45:30.245Z,14.07
2019-04-16T05:48:01.190Z,12.07
2019-04-16T05:50:32.140Z,11.90
2019-04-16T05:53:05.394Z,13.03
2019-04-16T05:55:50.628Z,12.83
2019-04-16T05:58:21.653Z,13.53
2019-04-16T06:01:17.734Z,13.47
2019-04-16T06:03:52.830Z,14.67
2019-04-16T06:06:21.814Z,15.40
2019-04-16T06:08:56.016Z,14.23
2019-04-16T06:11:29.176Z,15.07
2019-04-16T06:14:06.603Z,11.73
2019-04-16T06:16:56.971Z,13.90
2019-04-16T06:20:05.799Z,12.53
2019-04-16T06:22:55.359Z,12.23
2019-04-16T06:25:29.495Z,13.13
2019-04-16T06:28:19.302Z,14.57
2019-04-16T06:30:59.253Z,16.87
2019-04-16T06:33:52.248Z,13.32
2019-04-16T06:36:48.067Z,12.30
2019-04-16T06:39:36.917Z,13.68
2019-04-16T06:42:11.233Z,12.33
2019-04-16T06:44:50.614Z,13.23
2019-04-16T06:47:30.271Z,12.55
2019-04-16T06:50:30.708Z,14.33
2019-04-16T06:53:05.270Z,12.18
2019-04-16T06:55:43.034Z,12.82
2019-04-16T06:58:18.900Z,12.90
2019-04-16T07:01:09.006Z,16.30
2019-04-16T07:03:59.969Z,12.40
2019-04-16T07:06:50.989Z,12.33
2019-04-16T07:09:40.847Z,12.98
2019-04-16T07:12:10.361Z,11.57
2019-04-16T07:14:41.480Z,12.07
2019-04-16T07:17:12.639Z,16.15
2019-04-16T07:19:43.847Z,13.03
2019-04-16T07:22:20.777Z,12.15
2019-04-16T07:24:49.983Z,12.30
2019-04-16T07:27:21.441Z,13.20
2019-04-16T07:29:57.913Z,13.43
2019-04-16T07:32:54.469Z,11.97
2019-04-16T07:35:33.991Z,12.73
2019-04-16T07:38:21.003Z,15.53
2019-04-16T07:41:12.378Z,12.43
2019-04-16T07:44:11.010Z,12.03
2019-04-16T07:46:49.674Z,15.53
2019-04-16T07:49:42.514Z,11.57
2019-04-16T07:52:38.984Z,12.80
2019-04-16T07:55:19.992Z,12.37
2019-04-16T07:57:51.364Z,11.47
2019-04-16T08:00:22.579Z,12.50
2019-04-16T08:02:54.693Z,13.43
2019-04-16T08:05:27.858Z,12.27
2019-04-16T08:07:59.183Z,11.80
2019-04-16T08:10:31.908Z,12.70
2019-04-16T08:13:14.167Z,12.30
2019-04-16T08:15:45.512Z,12.80
2019-04-16T08:18:16.828Z,15.05
2019-04-16T08:21:01.066Z,14.33
2019-04-16T08:23:34.011Z,13.68
2019-04-16T08:26:11.371Z,13.63
2019-04-16T08:28:39.557Z,13.07
2019-04-16T08:31:16.334Z,16.27
2019-04-16T08:33:47.472Z,15.13
2019-04-16T08:36:18.797Z,12.98
2019-04-16T08:38:50.261Z,14.10
2019-04-16T08:41:21.749Z,13.75
2019-04-16T08:43:53.386Z,14.10
2019-04-16T08:46:26.654Z,14.37
2019-04-16T08:48:57.554Z,13.10
2019-04-16T08:51:31.272Z,13.00
2019-04-16T08:54:01.708Z,14.03
2019-04-16T08:56:32.950Z,13.63
2019-04-16T08:59:09.590Z,13.53
2019-04-16T09:01:37.333Z,14.07
2019-04-16T09:04:08.886Z,15.50
2019-04-16T09:06:42.630Z,14.00
2019-04-16T09:09:32.647Z,14.65
2019-04-16T09:12:09.445Z,17.10
2019-04-16T09:14:46.331Z,14.47
2019-04-16T09:17:32.096Z,14.77
2019-04-16T09:24:28.986Z,17.95
2019-04-16T09:27:06.315Z,15.47
2019-04-16T09:30:04.873Z,14.87
2019-04-16T09:32:50.677Z,15.07
2019-04-16T09:35:38.520Z,16.48
2019-04-16T09:38:28.750Z,15.00
2019-04-16T09:41:10.804Z,15.33
2019-04-16T09:43:47.537Z,16.07
2019-04-16T09:46:25.043Z,15.68
2019-04-16T09:48:52.945Z,16.07
2019-04-16T09:51:26.145Z,15.70
2019-04-16T09:53:57.256Z,17.20
2019-04-16T09:56:32.100Z,16.43
2019-04-16T09:59:11.047Z,16.63
2019-04-16T10:01:48.229Z,15.97
2019-04-16T10:04:21.961Z,18.55
2019-04-16T10:06:53.418Z,16.73
2019-04-16T10:09:24.984Z,17.63
2019-04-16T10:11:59.195Z,17.60
2019-04-16T10:14:31.177Z,15.97
2019-04-16T10:17:08.982Z,17.73
2019-04-16T10:19:43.308Z,16.50
2019-04-16T10:22:20.557Z,16.20
2019-04-16T10:25:01.499Z,17.33
2019-04-16T10:27:43.986Z,18.87
2019-04-16T10:30:21.194Z,17.62
2019-04-16T10:32:52.652Z,16.60
2019-04-16T10:35:27.722Z,17.13
2019-04-16T10:38:03.677Z,17.63
2019-04-16T10:40:53.543Z,17.43
2019-04-16T10:43:56.260Z,19.10
2019-04-16T10:46:38.671Z,17.33
2019-04-16T10:49:36.233Z,18.57
2019-04-16T10:52:29.211Z,17.67
2019-04-16T10:55:24.778Z,18.93
2019-04-16T10:58:13.888Z,18.83
2019-04-16T11:01:02.259Z,17.83
2019-04-16T11:03:47.953Z,18.87
2019-04-16T11:06:34.940Z,19.33
2019-04-16T11:09:09.974Z,19.07
2019-04-16T11:11:49.289Z,19.33
2019-04-16T11:14:25.283Z,20.47
2019-04-16T11:16:57.443Z,19.63
2019-04-16T11:19:33.435Z,19.37
2019-04-16T11:22:12.667Z,18.30
2019-04-16T11:24:46.421Z,19.97
2019-04-16T11:27:26.128Z,19.60
2019-04-16T11:29:56.812Z,20.80
2019-04-16T11:32:32.946Z,20.17
2019-04-16T11:35:13.430Z,18.93
2019-04-16T11:37:52.002Z,19.63
2019-04-16T11:40:22.689Z,20.53
2019-04-16T11:42:56.284Z,22.63
2019-04-16T11:45:30.533Z,21.30
2019-04-16T11:48:05.020Z,19.00
2019-04-16T11:50:51.802Z,21.20
2019-04-16T11:53:26.688Z,20.72
2019-04-16T11:56:04.162Z,21.27
2019-04-16T11:58:46.792Z,23.10
2019-04-16T12:01:40.224Z,20.80
2019-04-16T12:04:19.711Z,21.52
2019-04-16T12:07:06.402Z,21.37
2019-04-16T12:10:01.221Z,24.07
2019-04-16T12:13:06.800Z,21.50
2019-04-16T12:15:45.253Z,20.20
2019-04-16T12:18:41.362Z,22.37
2019-04-16T12:21:31.203Z,21.77
2019-04-16T12:24:21.210Z,20.97
2019-04-16T12:27:00.311Z,20.93
2019-04-16T12:29:42.524Z,21.67
2019-04-16T12:32:35.348Z,20.12
2019-04-16T12:35:21.037Z,21.20
2019-04-16T12:38:13.012Z,22.87
2019-04-16T12:41:05.355Z,22.00
2019-04-16T12:43:50.837Z,21.37
2019-04-16T12:46:42.180Z,20.77
2019-04-16T12:49:31.069Z,20.72
2019-04-16T12:52:17.586Z,21.60
2019-04-16T12:56:16.622Z,23.30
2019-04-16T12:59:09.689Z,20.97
2019-04-16T13:57:06.567Z,24.03
2019-04-16T14:00:08.319Z,19.47
2019-04-16T14:06:52.041Z,21.47
2019-04-16T14:09:59.490Z,20.33
2019-04-16T14:12:42.082Z,20.35
2019-04-16T14:15:40.372Z,23.57
2019-04-16T14:18:21.614Z,21.83
2019-04-16T14:21:18.689Z,22.00
2019-04-16T14:24:52.388Z,22.03
2019-04-16T14:27:25.232Z,21.73
2019-04-16T14:30:54.034Z,24.17
2019-04-16T14:32:58.176Z,21.53
2019-04-16T14:35:33.920Z,18.47
2019-04-16T14:38:14.592Z,17.60
2019-04-16T14:40:46.094Z,18.67
2019-04-16T14:43:23.095Z,17.87
2019-04-16T14:46:03.399Z,17.43
2019-04-16T14:48:39.064Z,17.90
2019-04-16T14:51:09.377Z,19.47
2019-04-16T14:53:53.337Z,23.40
2019-04-16T14:56:30.790Z,19.60
2019-04-16T14:59:07.911Z,17.80
2019-04-16T15:01:46.074Z,17.47
2019-04-16T15:04:32.887Z,19.65
2019-04-16T15:07:19.224Z,18.47
2019-04-16T15:10:07.222Z,17.82
2019-04-16T15:12:58.272Z,17.87
2019-04-16T15:15:42.147Z,15.30
2019-04-16T15:18:35.858Z,13.60
2019-04-16T15:21:25.611Z,13.17
2019-04-16T15:24:10.250Z,11.47
2019-04-16T15:26:58.528Z,14.27
2019-04-16T15:29:35.356Z,11.30
2019-04-16T15:32:34.759Z,11.97
2019-04-16T15:35:14.117Z,12.90
2019-04-16T15:37:57.859Z,10.43
2019-04-16T15:40:32.045Z,11.33
2019-04-16T15:43:21.030Z,11.63
2019-04-16T15:46:26.946Z,12.47
2019-04-16T15:49:19.437Z,11.07
2019-04-16T15:52:10.117Z,10.93
2019-04-16T15:54:50.177Z,11.33
2019-04-16T15:57:49.233Z,13.13
2019-04-16T16:00:28.746Z,10.35
2019-04-16T16:03:20.642Z,10.47
2019-04-16T16:06:07.300Z,11.87
2019-04-16T16:08:43.915Z,14.27
2019-04-16T16:11:39.375Z,13.50
2019-04-16T16:14:14.319Z,9.90
2019-04-16T16:16:50.707Z,9.65
2019-04-16T16:19:25.789Z,12.18
2019-04-16T16:22:11.059Z,10.33
2019-04-16T16:24:42.445Z,9.90
2019-04-16T16:27:46.840Z,12.37
2019-04-16T16:32:40.325Z,9.90
2019-04-16T16:34:47.447Z,11.53
2019-04-16T16:37:50.181Z,10.40
2019-04-16T16:40:54.886Z,9.87
2019-04-16T16:43:29.361Z,9.77
2019-04-16T16:46:31.134Z,10.27
2019-04-16T16:49:09.237Z,10.03
2019-04-16T16:51:50.351Z,12.27
2019-04-16T16:54:32.147Z,9.68
2019-04-16T16:57:26.053Z,9.10
2019-04-16T17:00:16.161Z,9.07
2019-04-16T17:02:57.310Z,10.20
2019-04-16T17:06:33.451Z,11.20
2019-04-16T17:09:05.791Z,9.23
2019-04-16T17:11:36.965Z,8.70
2019-04-16T17:14:08.570Z,8.87
2019-04-16T17:16:41.912Z,8.57
2019-04-16T17:19:13.304Z,9.13
2019-04-16T17:21:44.482Z,8.93
2019-04-16T17:24:42.545Z,8.93
2019-04-16T17:27:17.731Z,11.90
2019-04-16T17:29:49.837Z,8.80
2019-04-16T17:32:21.913Z,12.23
2019-04-16T17:34:53.648Z,10.30
2019-04-16T17:37:28.045Z,9.37
2019-04-16T17:40:02.501Z,8.87
2019-04-16T17:42:37.623Z,9.23
2019-04-16T17:45:27.130Z,9.17
2019-04-16T17:48:13.654Z,9.43
2019-04-16T17:51:02.644Z,10.27
2019-04-16T17:56:41.426Z,10.58
2019-04-16T17:59:19.360Z,10.72
2019-04-16T18:02:15.046Z,11.33
2019-04-16T18:05:00.847Z,10.07
2019-04-16T18:10:37.784Z,10.53
2019-04-16T18:13:34.547Z,10.60
2019-04-16T18:16:16.793Z,12.30
2019-04-16T18:19:05.129Z,10.17
2019-04-16T18:22:04.396Z,10.23
2019-04-16T18:24:45.097Z,10.77
2019-04-16T18:27:50.490Z,10.45
2019-04-16T18:30:37.327Z,10.95
2019-04-16T18:33:15.646Z,10.33
2019-04-16T18:35:56.674Z,10.30
2019-04-16T18:38:47.460Z,12.93
2019-04-16T18:41:50.319Z,14.05
2019-04-16T18:44:39.810Z,17.27
2019-04-16T18:47:29.365Z,17.20
2019-04-16T18:50:02.829Z,19.00
2019-04-16T18:52:36.614Z,18.27
2019-04-16T18:55:08.542Z,19.87
2019-04-16T18:57:41.070Z,19.87
2019-04-16T19:00:33.198Z,21.75
2019-04-16T19:03:14.657Z,20.57
2019-04-16T19:05:44.085Z,19.53
2019-04-16T19:08:17.248Z,20.00
2019-04-16T19:10:51.506Z,19.87
2019-04-16T19:13:22.941Z,19.00
2019-04-16T19:15:55.111Z,18.60
2019-04-16T19:18:29.007Z,19.23
2019-04-16T19:21:03.211Z,19.33
2019-04-16T19:23:35.189Z,15.40
2019-04-16T19:26:07.064Z,15.40
2019-04-16T19:28:40.320Z,12.50
2019-04-16T19:31:13.649Z,16.33
2019-04-16T19:33:46.188Z,13.80
2019-04-16T19:36:24.965Z,13.70
2019-04-16T19:38:55.125Z,12.50
2019-04-16T19:41:31.763Z,14.73
2019-04-16T19:44:06.365Z,13.40
2019-04-16T19:46:38.909Z,13.23
2019-04-16T19:49:10.557Z,12.60
2019-04-16T19:51:42.168Z,13.17
2019-04-16T19:54:13.815Z,11.50
2019-04-16T19:56:51.127Z,12.87
2019-04-16T19:59:18.973Z,11.18
2019-04-16T20:02:01.752Z,10.83
2019-04-16T20:04:54.551Z,14.70
2019-04-16T20:07:38.024Z,10.67
2019-04-16T20:10:34.971Z,11.17
2019-04-16T20:14:02.682Z,10.87
2019-04-16T20:16:34.808Z,12.43
2019-04-16T20:19:22.118Z,12.63
2019-04-16T20:21:54.947Z,11.43
2019-04-16T20:24:27.429Z,11.10
2019-04-16T20:26:58.524Z,12.20
2019-04-16T20:29:29.710Z,12.57
2019-04-16T20:32:06.866Z,12.50
2019-04-16T20:34:38.057Z,12.17
2019-04-16T20:37:09.211Z,12.17
2019-04-16T20:39:42.804Z,11.70
2019-04-16T20:42:15.817Z,11.20
2019-04-16T20:44:48.535Z,14.20
2019-04-16T20:47:19.673Z,12.97
2019-04-16T20:49:50.977Z,13.27
2019-04-16T20:52:22.159Z,11.68
2019-04-16T20:54:54.544Z,12.10
2019-04-16T20:57:26.488Z,11.85
2019-04-16T21:00:00.393Z,11.27
2019-04-16T21:02:33.319Z,11.63
2019-04-16T21:05:04.982Z,11.70
2019-04-16T21:07:43.962Z,11.47
2019-04-16T21:10:19.140Z,11.37
2019-04-16T21:15:57.179Z,10.90
2019-04-16T21:18:27.844Z,11.80
2019-04-16T21:21:27.239Z,11.00
2019-04-16T21:24:19.261Z,11.30
2019-04-16T21:26:57.285Z,13.67
2019-04-16T21:29:53.178Z,13.47
2019-04-16T21:35:56.624Z,11.70
2019-04-16T21:41:25.577Z,11.83
2019-04-16T21:43:57.994Z,11.50
2019-04-16T21:46:58.329Z,11.57
2019-04-16T21:49:38.720Z,11.80
2019-04-16T21:52:27.267Z,11.07
2019-04-16T21:55:03.017Z,12.13
2019-04-16T21:57:31.262Z,11.00
2019-04-16T22:00:03.369Z,11.15
2019-04-16T22:02:37.990Z,11.77
2019-04-16T22:05:10.591Z,12.13
2019-04-16T22:07:41.847Z,11.90
2019-04-16T22:10:12.907Z,13.50
2019-04-16T22:12:47.595Z,12.57
2019-04-16T22:15:18.139Z,13.15
2019-04-16T22:17:49.418Z,14.20
2019-04-16T22:20:20.486Z,13.38
2019-04-16T22:22:51.680Z,13.47
2019-04-16T22:25:23.795Z,13.85
2019-04-16T22:27:55.855Z,14.43
2019-04-16T22:30:27.560Z,14.57
2019-04-16T22:32:58.759Z,16.57
2019-04-16T22:35:32.639Z,16.00
2019-04-16T22:38:03.844Z,18.23
2019-04-16T22:40:51.697Z,16.57
2019-04-16T22:43:42.715Z,16.15
2019-04-16T22:46:20.089Z,16.05
2019-04-16T22:49:01.756Z,15.37
2019-04-16T22:51:32.976Z,15.83
2019-04-16T22:54:04.088Z,15.10
2019-04-16T22:56:46.323Z,14.40
2019-04-16T22:59:20.167Z,14.55
2019-04-16T23:01:53.418Z,12.80
2019-04-16T23:04:26.156Z,11.55
2019-04-16T23:06:56.953Z,10.70
2019-04-16T23:09:29.934Z,11.33
2019-04-16T23:12:01.068Z,13.37
2019-04-16T23:14:34.953Z,13.20
2019-04-16T23:17:05.463Z,15.47
2019-04-16T23:19:36.860Z,14.23
2019-04-16T23:22:14.239Z,16.40
2019-04-16T23:24:43.931Z,15.60
2019-04-16T23:27:15.016Z,17.73
2019-04-16T23:29:47.630Z,16.67
2019-04-16T23:32:19.005Z,15.00
2019-04-16T23:34:50.279Z,16.00
2019-04-16T23:37:23.411Z,13.90
2019-04-16T23:39:54.023Z,16.40
2019-04-16T23:42:25.061Z,14.97
2019-04-16T23:45:33.108Z,13.93
2019-04-16T23:48:21.409Z,15.30
2019-04-16T23:51:01.451Z,16.10
2019-04-16T23:54:00.575Z,17.53
2019-04-16T23:56:49.697Z,19.20
2019-04-16T23:59:35.739Z,19.95
